sensor_id;sensor_type;location;lat;lon;timestamp;P1;durP1;ratioP1;P2;durP2;ratioP2
69712;SDS011;56980;51.826;4.424;2022-09-25T03:04:17;4.72;;;1.55;;
69712;SDS011;56980;51.826;4.424;2022-09-25T03:06:44;3.88;;;1.52;;
69712;SDS011;56980;51.826;4.424;2022-09-25T03:09:10;6.47;;;1.58;;
69712;SDS011;56980;51.826;4.424;2022-09-25T03:11:37;7.00;;;1.93;;
69712;SDS011;56980;51.826;4.424;2022-09-25T03:14:07;8.27;;;2.08;;
69712;SDS011;56980;51.826;4.424;2022-09-25T03:19:09;9.77;;;2.20;;
69712;SDS011;56980;51.826;4.424;2022-09-25T03:21:34;7.10;;;1.90;;
69712;SDS011;56980;51.826;4.424;2022-09-25T03:23:59;6.40;;;1.77;;
69712;SDS011;56980;51.826;4.424;2022-09-25T03:26:25;11.73;;;2.10;;
69712;SDS011;56980;51.826;4.424;2022-09-25T03:28:54;12.52;;;2.05;;
69712;SDS011;56980;51.826;4.424;2022-09-25T03:31:20;4.00;;;1.73;;
69712;SDS011;56980;51.826;4.424;2022-09-25T03:33:46;6.32;;;1.70;;
69712;SDS011;56980;51.826;4.424;2022-09-25T03:36:12;5.45;;;1.30;;
69712;SDS011;56980;51.826;4.424;2022-09-25T03:38:43;13.25;;;1.85;;
69712;SDS011;56980;51.826;4.424;2022-09-25T03:41:10;4.15;;;1.35;;
69712;SDS011;56980;51.826;4.424;2022-09-25T03:43:38;5.28;;;1.48;;
69712;SDS011;56980;51.826;4.424;2022-09-25T03:46:07;4.10;;;1.50;;
69712;SDS011;56980;51.826;4.424;2022-09-25T03:48:35;5.63;;;1.67;;
69712;SDS011;56980;51.826;4.424;2022-09-25T03:51:00;5.50;;;1.65;;
69712;SDS011;56980;51.826;4.424;2022-09-25T03:53:26;5.10;;;1.40;;
69712;SDS011;56980;51.826;4.424;2022-09-25T03:55:55;4.32;;;1.20;;
69712;SDS011;56980;51.826;4.424;2022-09-25T03:58:21;6.72;;;1.80;;
69712;SDS011;56980;51.826;4.424;2022-09-25T04:00:46;4.50;;;1.37;;
69712;SDS011;56980;51.826;4.424;2022-09-25T04:03:13;3.05;;;1.50;;
69712;SDS011;56980;51.826;4.424;2022-09-25T04:05:39;3.78;;;1.13;;
69712;SDS011;56980;51.826;4.424;2022-09-25T04:08:06;7.93;;;1.23;;
69712;SDS011;56980;51.826;4.424;2022-09-25T04:10:32;13.88;;;3.30;;
69712;SDS011;56980;51.826;4.424;2022-09-25T04:13:03;2.22;;;1.00;;
69712;SDS011;56980;51.826;4.424;2022-09-25T04:15:30;4.53;;;1.33;;
69712;SDS011;56980;51.826;4.424;2022-09-25T04:17:56;6.13;;;1.50;;
69712;SDS011;56980;51.826;4.424;2022-09-25T04:20:22;4.53;;;1.08;;
69712;SDS011;56980;51.826;4.424;2022-09-25T04:22:47;3.27;;;1.03;;
69712;SDS011;56980;51.826;4.424;2022-09-25T04:25:13;5.43;;;1.77;;
69712;SDS011;56980;51.826;4.424;2022-09-25T04:27:38;7.50;;;1.77;;
69712;SDS011;56980;51.826;4.424;2022-09-25T04:30:04;7.83;;;1.83;;
69712;SDS011;56980;51.826;4.424;2022-09-25T04:32:30;4.13;;;1.30;;
69712;SDS011;56980;51.826;4.424;2022-09-25T04:35:14;4.55;;;1.10;;
69712;SDS011;56980;51.826;4.424;2022-09-25T04:37:40;4.17;;;1.10;;
69712;SDS011;56980;51.826;4.424;2022-09-25T04:40:05;6.87;;;1.83;;
69712;SDS011;56980;51.826;4.424;2022-09-25T04:42:32;6.85;;;1.10;;
69712;SDS011;56980;51.826;4.424;2022-09-25T04:44:57;9.40;;;3.08;;
69712;SDS011;56980;51.826;4.424;2022-09-25T04:47:25;6.03;;;1.27;;
69712;SDS011;56980;51.826;4.424;2022-09-25T04:49:54;8.57;;;1.10;;
69712;SDS011;56980;51.826;4.424;2022-09-25T04:52:19;3.70;;;1.07;;
69712;SDS011;56980;51.826;4.424;2022-09-25T04:54:45;7.75;;;1.70;;
69712;SDS011;56980;51.826;4.424;2022-09-25T04:57:19;1.70;;;0.95;;
69712;SDS011;56980;51.826;4.424;2022-09-25T04:59:45;3.80;;;1.10;;
69712;SDS011;56980;51.826;4.424;2022-09-25T05:02:13;3.03;;;1.10;;
69712;SDS011;56980;51.826;4.424;2022-09-25T05:04:38;3.38;;;0.98;;
69712;SDS011;56980;51.826;4.424;2022-09-25T05:07:04;4.90;;;1.70;;
69712;SDS011;56980;51.826;4.424;2022-09-25T05:09:30;4.75;;;1.00;;
69712;SDS011;56980;51.826;4.424;2022-09-25T05:11:56;7.18;;;1.20;;
69712;SDS011;56980;51.826;4.424;2022-09-25T05:14:22;3.78;;;1.27;;
69712;SDS011;56980;51.826;4.424;2022-09-25T05:16:48;5.82;;;1.33;;
69712;SDS011;56980;51.826;4.424;2022-09-25T05:19:13;11.23;;;2.17;;
69712;SDS011;56980;51.826;4.424;2022-09-25T05:21:39;6.53;;;1.30;;
69712;SDS011;56980;51.826;4.424;2022-09-25T05:24:05;6.13;;;1.10;;
69712;SDS011;56980;51.826;4.424;2022-09-25T05:26:35;6.43;;;1.20;;
69712;SDS011;56980;51.826;4.424;2022-09-25T05:29:02;6.03;;;1.80;;
69712;SDS011;56980;51.826;4.424;2022-09-25T05:31:29;5.30;;;1.20;;
69712;SDS011;56980;51.826;4.424;2022-09-25T05:33:57;5.13;;;1.20;;
69712;SDS011;56980;51.826;4.424;2022-09-25T05:36:23;5.33;;;1.20;;
69712;SDS011;56980;51.826;4.424;2022-09-25T05:38:48;3.25;;;1.08;;
69712;SDS011;56980;51.826;4.424;2022-09-25T05:44:36;6.65;;;1.35;;
69712;SDS011;56980;51.826;4.424;2022-09-25T05:47:03;15.52;;;2.58;;
69712;SDS011;56980;51.826;4.424;2022-09-25T05:49:30;3.70;;;1.27;;
69712;SDS011;56980;51.826;4.424;2022-09-25T05:51:55;5.00;;;1.50;;
69712;SDS011;56980;51.826;4.424;2022-09-25T05:54:20;3.90;;;1.50;;
69712;SDS011;56980;51.826;4.424;2022-09-25T05:56:46;3.57;;;1.90;;
69712;SDS011;56980;51.826;4.424;2022-09-25T05:59:11;6.80;;;1.20;;
69712;SDS011;56980;51.826;4.424;2022-09-25T06:01:36;3.17;;;1.30;;
69712;SDS011;56980;51.826;4.424;2022-09-25T06:04:02;3.63;;;1.65;;
69712;SDS011;56980;51.826;4.424;2022-09-25T06:06:28;4.10;;;1.50;;
69712;SDS011;56980;51.826;4.424;2022-09-25T06:08:55;7.15;;;1.40;;
69712;SDS011;56980;51.826;4.424;2022-09-25T06:11:21;8.50;;;1.40;;
69712;SDS011;56980;51.826;4.424;2022-09-25T06:13:47;4.60;;;1.40;;
69712;SDS011;56980;51.826;4.424;2022-09-25T06:16:15;3.63;;;1.00;;
69712;SDS011;56980;51.826;4.424;2022-09-25T06:18:43;3.63;;;0.90;;
69712;SDS011;56980;51.826;4.424;2022-09-25T06:21:12;3.53;;;1.20;;
69712;SDS011;56980;51.826;4.424;2022-09-25T06:23:38;3.05;;;1.02;;
69712;SDS011;56980;51.826;4.424;2022-09-25T06:26:04;4.47;;;1.30;;
69712;SDS011;56980;51.826;4.424;2022-09-25T06:28:31;3.35;;;1.20;;
69712;SDS011;56980;51.826;4.424;2022-09-25T06:31:03;2.67;;;1.27;;
69712;SDS011;56980;51.826;4.424;2022-09-25T06:33:29;2.90;;;1.00;;
69712;SDS011;56980;51.826;4.424;2022-09-25T06:35:55;5.13;;;1.35;;
69712;SDS011;56980;51.826;4.424;2022-09-25T06:38:20;5.07;;;1.90;;
69712;SDS011;56980;51.826;4.424;2022-09-25T06:40:46;2.73;;;1.10;;
69712;SDS011;56980;51.826;4.424;2022-09-25T06:43:12;5.57;;;1.05;;
69712;SDS011;56980;51.826;4.424;2022-09-25T06:45:39;3.70;;;1.05;;
69712;SDS011;56980;51.826;4.424;2022-09-25T06:48:07;5.22;;;1.50;;
69712;SDS011;56980;51.826;4.424;2022-09-25T06:50:55;4.03;;;1.33;;
69712;SDS011;56980;51.826;4.424;2022-09-25T06:53:22;5.65;;;1.30;;
69712;SDS011;56980;51.826;4.424;2022-09-25T06:55:48;4.18;;;1.05;;
69712;SDS011;56980;51.826;4.424;2022-09-25T06:58:19;7.95;;;1.20;;
69712;SDS011;56980;51.826;4.424;2022-09-25T07:00:50;2.47;;;0.95;;
69712;SDS011;56980;51.826;4.424;2022-09-25T07:03:16;2.60;;;1.42;;
69712;SDS011;56980;51.826;4.424;2022-09-25T07:06:00;3.28;;;1.10;;
69712;SDS011;56980;51.826;4.424;2022-09-25T07:08:27;3.70;;;1.27;;
69712;SDS011;56980;51.826;4.424;2022-09-25T07:10:53;5.00;;;1.07;;
69712;SDS011;56980;51.826;4.424;2022-09-25T07:13:21;3.92;;;1.23;;
69712;SDS011;56980;51.826;4.424;2022-09-25T07:15:58;4.38;;;1.05;;
69712;SDS011;56980;51.826;4.424;2022-09-25T07:18:26;5.28;;;1.10;;
69712;SDS011;56980;51.826;4.424;2022-09-25T07:20:53;8.05;;;1.65;;
69712;SDS011;56980;51.826;4.424;2022-09-25T07:23:23;3.17;;;1.10;;
69712;SDS011;56980;51.826;4.424;2022-09-25T07:25:48;3.43;;;1.23;;
69712;SDS011;56980;51.826;4.424;2022-09-25T07:28:14;3.53;;;1.00;;
69712;SDS011;56980;51.826;4.424;2022-09-25T07:30:43;3.83;;;1.08;;
69712;SDS011;56980;51.826;4.424;2022-09-25T07:33:08;3.90;;;1.30;;
69712;SDS011;56980;51.826;4.424;2022-09-25T07:35:34;6.38;;;1.10;;
69712;SDS011;56980;51.826;4.424;2022-09-25T07:38:00;3.47;;;1.35;;
69712;SDS011;56980;51.826;4.424;2022-09-25T07:40:26;3.65;;;1.23;;
69712;SDS011;56980;51.826;4.424;2022-09-25T07:43:01;4.57;;;1.08;;
69712;SDS011;56980;51.826;4.424;2022-09-25T07:45:28;4.05;;;1.17;;
69712;SDS011;56980;51.826;4.424;2022-09-25T07:48:00;4.30;;;1.03;;
69712;SDS011;56980;51.826;4.424;2022-09-25T07:50:30;4.50;;;1.30;;
69712;SDS011;56980;51.826;4.424;2022-09-25T07:55:37;3.90;;;1.17;;
69712;SDS011;56980;51.826;4.424;2022-09-25T07:58:02;2.87;;;1.10;;
69712;SDS011;56980;51.826;4.424;2022-09-25T08:00:27;3.17;;;1.60;;
69712;SDS011;56980;51.826;4.424;2022-09-25T08:02:56;3.57;;;1.17;;
69712;SDS011;56980;51.826;4.424;2022-09-25T08:05:23;5.75;;;1.65;;
69712;SDS011;56980;51.826;4.424;2022-09-25T08:07:48;6.13;;;1.60;;
69712;SDS011;56980;51.826;4.424;2022-09-25T08:10:14;3.83;;;1.30;;
69712;SDS011;56980;51.826;4.424;2022-09-25T08:12:39;5.57;;;2.40;;
69712;SDS011;56980;51.826;4.424;2022-09-25T08:15:05;5.63;;;1.40;;
69712;SDS011;56980;51.826;4.424;2022-09-25T08:17:31;3.93;;;1.53;;
69712;SDS011;56980;51.826;4.424;2022-09-25T08:19:57;7.30;;;1.63;;
69712;SDS011;56980;51.826;4.424;2022-09-25T08:22:22;4.17;;;1.27;;
69712;SDS011;56980;51.826;4.424;2022-09-25T08:24:48;3.50;;;1.10;;
69712;SDS011;56980;51.826;4.424;2022-09-25T08:27:13;4.40;;;1.30;;
69712;SDS011;56980;51.826;4.424;2022-09-25T08:29:39;5.90;;;1.07;;
69712;SDS011;56980;51.826;4.424;2022-09-25T08:32:07;2.25;;;1.00;;
69712;SDS011;56980;51.826;4.424;2022-09-25T08:34:33;4.82;;;1.83;;
69712;SDS011;56980;51.826;4.424;2022-09-25T08:36:59;3.20;;;1.50;;
69712;SDS011;56980;51.826;4.424;2022-09-25T08:39:24;3.20;;;0.90;;
69712;SDS011;56980;51.826;4.424;2022-09-25T08:41:51;4.55;;;1.10;;
69712;SDS011;56980;51.826;4.424;2022-09-25T08:47:02;5.10;;;1.00;;
69712;SDS011;56980;51.826;4.424;2022-09-25T08:50:08;4.20;;;0.80;;
69712;SDS011;56980;51.826;4.424;2022-09-25T08:52:36;1.92;;;0.68;;
69712;SDS011;56980;51.826;4.424;2022-09-25T08:55:48;4.28;;;0.73;;
69712;SDS011;56980;51.826;4.424;2022-09-25T08:58:22;4.40;;;1.07;;
69712;SDS011;56980;51.826;4.424;2022-09-25T09:00:54;4.97;;;0.90;;
69712;SDS011;56980;51.826;4.424;2022-09-25T09:03:24;5.65;;;0.90;;
69712;SDS011;56980;51.826;4.424;2022-09-25T09:06:04;7.88;;;1.25;;
69712;SDS011;56980;51.826;4.424;2022-09-25T09:08:39;5.72;;;0.73;;
69712;SDS011;56980;51.826;4.424;2022-09-25T09:11:14;3.90;;;1.27;;
69712;SDS011;56980;51.826;4.424;2022-09-25T09:13:48;3.78;;;0.80;;
69712;SDS011;56980;51.826;4.424;2022-09-25T09:19:04;4.30;;;0.73;;
69712;SDS011;56980;51.826;4.424;2022-09-25T09:21:33;3.60;;;0.90;;
69712;SDS011;56980;51.826;4.424;2022-09-25T09:26:56;3.80;;;0.80;;
69712;SDS011;56980;51.826;4.424;2022-09-25T09:32:28;3.35;;;0.70;;
69712;SDS011;56980;51.826;4.424;2022-09-25T09:35:26;7.90;;;0.95;;
69712;SDS011;56980;51.826;4.424;2022-09-25T09:38:07;6.60;;;0.70;;
69712;SDS011;56980;51.826;4.424;2022-09-25T09:49:20;6.32;;;0.90;;
69712;SDS011;56980;51.826;4.424;2022-09-25T09:52:13;5.10;;;0.80;;
69712;SDS011;56980;51.826;4.424;2022-09-25T10:00:05;2.95;;;0.80;;
69712;SDS011;56980;51.826;4.424;2022-09-25T10:03:24;4.82;;;0.82;;
69712;SDS011;56980;51.826;4.424;2022-09-25T10:05:54;5.07;;;0.80;;
69712;SDS011;56980;51.826;4.424;2022-09-25T10:08:22;4.03;;;0.77;;
69712;SDS011;56980;51.826;4.424;2022-09-25T10:10:51;5.35;;;1.15;;
69712;SDS011;56980;51.826;4.424;2022-09-25T10:13:24;3.60;;;0.80;;
69712;SDS011;56980;51.826;4.424;2022-09-25T10:16:34;2.88;;;0.90;;
69712;SDS011;56980;51.826;4.424;2022-09-25T10:19:25;2.90;;;0.80;;
69712;SDS011;56980;51.826;4.424;2022-09-25T10:22:15;5.68;;;0.88;;
69712;SDS011;56980;51.826;4.424;2022-09-25T10:24:56;3.08;;;0.80;;
69712;SDS011;56980;51.826;4.424;2022-09-25T10:27:38;5.38;;;1.00;;
69712;SDS011;56980;51.826;4.424;2022-09-25T10:30:13;4.72;;;0.70;;
69712;SDS011;56980;51.826;4.424;2022-09-25T10:32:54;3.30;;;0.70;;
69712;SDS011;56980;51.826;4.424;2022-09-25T10:35:57;5.18;;;1.27;;
69712;SDS011;56980;51.826;4.424;2022-09-25T10:43:51;3.20;;;0.70;;
69712;SDS011;56980;51.826;4.424;2022-09-25T10:46:31;1.52;;;0.60;;
69712;SDS011;56980;51.826;4.424;2022-09-25T10:49:20;4.78;;;0.50;;
69712;SDS011;56980;51.826;4.424;2022-09-25T10:52:07;2.65;;;0.60;;
69712;SDS011;56980;51.826;4.424;2022-09-25T10:54:38;1.77;;;0.70;;
69712;SDS011;56980;51.826;4.424;2022-09-25T10:57:21;2.53;;;0.57;;
69712;SDS011;56980;51.826;4.424;2022-09-25T11:00:15;2.88;;;0.60;;
69712;SDS011;56980;51.826;4.424;2022-09-25T11:02:44;2.30;;;0.63;;
69712;SDS011;56980;51.826;4.424;2022-09-25T11:05:19;2.35;;;0.68;;
69712;SDS011;56980;51.826;4.424;2022-09-25T11:07:51;1.55;;;0.50;;
69712;SDS011;56980;51.826;4.424;2022-09-25T11:10:19;2.63;;;0.90;;
69712;SDS011;56980;51.826;4.424;2022-09-25T11:12:47;5.57;;;0.80;;
69712;SDS011;56980;51.826;4.424;2022-09-25T11:15:16;1.85;;;0.60;;
69712;SDS011;56980;51.826;4.424;2022-09-25T11:17:45;1.73;;;0.52;;
69712;SDS011;56980;51.826;4.424;2022-09-25T11:23:14;4.60;;;0.80;;
69712;SDS011;56980;51.826;4.424;2022-09-25T11:25:54;4.93;;;0.57;;
69712;SDS011;56980;51.826;4.424;2022-09-25T11:31:39;3.70;;;0.75;;
69712;SDS011;56980;51.826;4.424;2022-09-25T11:39:54;1.35;;;0.50;;
69712;SDS011;56980;51.826;4.424;2022-09-25T11:42:57;2.38;;;0.75;;
69712;SDS011;56980;51.826;4.424;2022-09-25T11:45:39;1.77;;;0.80;;
69712;SDS011;56980;51.826;4.424;2022-09-25T11:51:04;2.57;;;0.90;;
69712;SDS011;56980;51.826;4.424;2022-09-25T11:53:56;1.20;;;0.60;;
69712;SDS011;56980;51.826;4.424;2022-09-25T11:59:02;5.55;;;1.75;;
69712;SDS011;56980;51.826;4.424;2022-09-25T12:01:44;3.08;;;0.60;;
69712;SDS011;56980;51.826;4.424;2022-09-25T12:06:50;2.78;;;0.70;;
69712;SDS011;56980;51.826;4.424;2022-09-25T12:09:43;1.35;;;0.60;;
69712;SDS011;56980;51.826;4.424;2022-09-25T12:15:11;0.95;;;0.50;;
69712;SDS011;56980;51.826;4.424;2022-09-25T12:17:57;4.00;;;0.60;;
69712;SDS011;56980;51.826;4.424;2022-09-25T12:23:41;2.65;;;0.68;;
69712;SDS011;56980;51.826;4.424;2022-09-25T12:40:52;1.90;;;0.60;;
69712;SDS011;56980;51.826;4.424;2022-09-25T12:45:46;1.43;;;0.77;;
69712;SDS011;56980;51.826;4.424;2022-09-25T12:51:04;2.20;;;0.60;;
69712;SDS011;56980;51.826;4.424;2022-09-25T12:53:42;1.80;;;0.50;;
69712;SDS011;56980;51.826;4.424;2022-09-25T12:56:16;1.05;;;0.60;;
69712;SDS011;56980;51.826;4.424;2022-09-25T13:01:26;2.75;;;0.50;;
69712;SDS011;56980;51.826;4.424;2022-09-25T13:07:24;1.02;;;0.40;;
69712;SDS011;56980;51.826;4.424;2022-09-25T13:10:17;1.42;;;0.47;;
69712;SDS011;56980;51.826;4.424;2022-09-25T13:12:50;1.00;;;0.50;;
69712;SDS011;56980;51.826;4.424;2022-09-25T13:15:40;1.52;;;0.75;;
69712;SDS011;56980;51.826;4.424;2022-09-25T13:18:09;1.30;;;0.50;;
69712;SDS011;56980;51.826;4.424;2022-09-25T13:20:45;1.73;;;0.50;;
69712;SDS011;56980;51.826;4.424;2022-09-25T13:23:14;2.45;;;0.50;;
69712;SDS011;56980;51.826;4.424;2022-09-25T13:28:12;0.50;;;0.50;;
69712;SDS011;56980;51.826;4.424;2022-09-25T13:30:55;1.05;;;0.47;;
69712;SDS011;56980;51.826;4.424;2022-09-25T13:33:46;3.63;;;0.50;;
69712;SDS011;56980;51.826;4.424;2022-09-25T13:38:55;1.15;;;0.43;;
69712;SDS011;56980;51.826;4.424;2022-09-25T13:41:51;0.68;;;0.40;;
69712;SDS011;56980;51.826;4.424;2022-09-25T13:52:28;0.70;;;0.55;;
69712;SDS011;56980;51.826;4.424;2022-09-25T14:03:00;1.38;;;0.50;;
69712;SDS011;56980;51.826;4.424;2022-09-25T14:05:33;0.95;;;0.40;;
69712;SDS011;56980;51.826;4.424;2022-09-25T14:08:11;1.70;;;0.50;;
69712;SDS011;56980;51.826;4.424;2022-09-25T14:10:45;2.00;;;0.50;;
69712;SDS011;56980;51.826;4.424;2022-09-25T14:13:16;0.90;;;0.40;;
69712;SDS011;56980;51.826;4.424;2022-09-25T14:15:46;1.63;;;0.93;;
69712;SDS011;56980;51.826;4.424;2022-09-25T14:18:33;6.50;;;0.63;;
69712;SDS011;56980;51.826;4.424;2022-09-25T14:21:01;1.17;;;0.50;;
69712;SDS011;56980;51.826;4.424;2022-09-25T14:23:33;3.25;;;0.85;;
69712;SDS011;56980;51.826;4.424;2022-09-25T14:26:27;2.28;;;0.60;;
69712;SDS011;56980;51.826;4.424;2022-09-25T14:28:54;1.60;;;0.60;;
69712;SDS011;56980;51.826;4.424;2022-09-25T14:34:12;1.67;;;0.57;;
69712;SDS011;56980;51.826;4.424;2022-09-25T14:48:38;3.30;;;0.50;;
69712;SDS011;56980;51.826;4.424;2022-09-25T14:51:12;1.42;;;0.60;;
69712;SDS011;56980;51.826;4.424;2022-09-25T14:53:51;4.07;;;0.40;;
69712;SDS011;56980;51.826;4.424;2022-09-25T14:56:21;1.35;;;0.60;;
69712;SDS011;56980;51.826;4.424;2022-09-25T14:58:55;1.50;;;0.50;;
69712;SDS011;56980;51.826;4.424;2022-09-25T15:01:27;2.58;;;0.40;;
69712;SDS011;56980;51.826;4.424;2022-09-25T15:03:56;1.45;;;0.43;;
69712;SDS011;56980;51.826;4.424;2022-09-25T15:06:25;3.20;;;0.45;;
69712;SDS011;56980;51.826;4.424;2022-09-25T15:08:53;3.13;;;0.65;;
69712;SDS011;56980;51.826;4.424;2022-09-25T15:11:19;1.23;;;0.50;;
69712;SDS011;56980;51.826;4.424;2022-09-25T15:13:46;2.13;;;0.60;;
69712;SDS011;56980;51.826;4.424;2022-09-25T15:16:19;1.93;;;0.60;;
69712;SDS011;56980;51.826;4.424;2022-09-25T15:19:16;2.22;;;0.60;;
69712;SDS011;56980;51.826;4.424;2022-09-25T15:21:44;2.03;;;0.60;;
69712;SDS011;56980;51.826;4.424;2022-09-25T15:24:16;2.08;;;0.40;;
69712;SDS011;56980;51.826;4.424;2022-09-25T15:26:47;1.88;;;0.77;;
69712;SDS011;56980;51.826;4.424;2022-09-25T15:29:15;1.83;;;0.60;;
69712;SDS011;56980;51.826;4.424;2022-09-25T15:31:45;2.55;;;1.05;;
69712;SDS011;56980;51.826;4.424;2022-09-25T15:34:14;1.95;;;0.68;;
69712;SDS011;56980;51.826;4.424;2022-09-25T15:36:48;1.13;;;0.70;;
69712;SDS011;56980;51.826;4.424;2022-09-25T15:39:16;2.33;;;0.70;;
69712;SDS011;56980;51.826;4.424;2022-09-25T15:41:46;1.03;;;0.53;;
69712;SDS011;56980;51.826;4.424;2022-09-25T15:46:38;4.23;;;0.53;;
69712;SDS011;56980;51.826;4.424;2022-09-25T15:49:07;0.70;;;0.50;;
69712;SDS011;56980;51.826;4.424;2022-09-25T15:51:39;3.00;;;0.70;;
69712;SDS011;56980;51.826;4.424;2022-09-25T15:54:36;5.70;;;0.60;;
69712;SDS011;56980;51.826;4.424;2022-09-25T15:57:11;0.80;;;0.50;;
69712;SDS011;56980;51.826;4.424;2022-09-25T15:59:46;1.40;;;0.55;;
69712;SDS011;56980;51.826;4.424;2022-09-25T16:02:33;4.03;;;0.60;;
69712;SDS011;56980;51.826;4.424;2022-09-25T16:05:24;1.65;;;0.55;;
69712;SDS011;56980;51.826;4.424;2022-09-25T16:13:46;0.52;;;0.40;;
69712;SDS011;56980;51.826;4.424;2022-09-25T16:16:28;1.65;;;0.60;;
69712;SDS011;56980;51.826;4.424;2022-09-25T16:19:00;1.40;;;0.50;;
69712;SDS011;56980;51.826;4.424;2022-09-25T16:21:54;3.63;;;0.60;;
69712;SDS011;56980;51.826;4.424;2022-09-25T16:24:25;7.85;;;0.90;;
69712;SDS011;56980;51.826;4.424;2022-09-25T16:26:56;2.42;;;0.60;;
69712;SDS011;56980;51.826;4.424;2022-09-25T16:29:27;2.80;;;0.70;;
69712;SDS011;56980;51.826;4.424;2022-09-25T16:31:59;1.30;;;0.65;;
69712;SDS011;56980;51.826;4.424;2022-09-25T16:34:31;3.47;;;0.63;;
69712;SDS011;56980;51.826;4.424;2022-09-25T16:37:03;3.33;;;1.17;;
69712;SDS011;56980;51.826;4.424;2022-09-25T16:39:37;2.78;;;0.70;;
69712;SDS011;56980;51.826;4.424;2022-09-25T16:42:37;2.00;;;0.68;;
69712;SDS011;56980;51.826;4.424;2022-09-25T16:45:14;2.53;;;0.70;;
69712;SDS011;56980;51.826;4.424;2022-09-25T16:47:42;2.25;;;0.60;;
69712;SDS011;56980;51.826;4.424;2022-09-25T16:50:09;2.28;;;0.82;;
69712;SDS011;56980;51.826;4.424;2022-09-25T16:52:36;1.17;;;0.70;;
69712;SDS011;56980;51.826;4.424;2022-09-25T16:55:05;3.10;;;0.65;;
69712;SDS011;56980;51.826;4.424;2022-09-25T16:57:34;1.95;;;0.90;;
69712;SDS011;56980;51.826;4.424;2022-09-25T17:00:00;4.10;;;0.93;;
69712;SDS011;56980;51.826;4.424;2022-09-25T17:02:27;4.32;;;0.60;;
69712;SDS011;56980;51.826;4.424;2022-09-25T17:04:57;4.50;;;0.75;;
69712;SDS011;56980;51.826;4.424;2022-09-25T17:07:44;3.28;;;0.60;;
69712;SDS011;56980;51.826;4.424;2022-09-25T17:10:11;4.78;;;0.60;;
69712;SDS011;56980;51.826;4.424;2022-09-25T17:12:39;1.43;;;0.60;;
69712;SDS011;56980;51.826;4.424;2022-09-25T17:15:05;3.90;;;0.55;;
69712;SDS011;56980;51.826;4.424;2022-09-25T17:17:31;1.92;;;0.60;;
69712;SDS011;56980;51.826;4.424;2022-09-25T17:19:57;3.80;;;0.70;;
69712;SDS011;56980;51.826;4.424;2022-09-25T17:22:22;3.30;;;0.60;;
69712;SDS011;56980;51.826;4.424;2022-09-25T17:24:53;2.55;;;0.60;;
69712;SDS011;56980;51.826;4.424;2022-09-25T17:27:21;2.67;;;0.60;;
69712;SDS011;56980;51.826;4.424;2022-09-25T17:29:47;1.37;;;0.60;;
69712;SDS011;56980;51.826;4.424;2022-09-25T17:32:12;2.77;;;0.80;;
69712;SDS011;56980;51.826;4.424;2022-09-25T17:34:42;2.47;;;1.17;;
69712;SDS011;56980;51.826;4.424;2022-09-25T17:37:09;3.05;;;0.90;;
69712;SDS011;56980;51.826;4.424;2022-09-25T17:39:36;1.55;;;0.60;;
69712;SDS011;56980;51.826;4.424;2022-09-25T17:42:02;5.03;;;1.10;;
69712;SDS011;56980;51.826;4.424;2022-09-25T17:44:27;2.88;;;0.90;;
69712;SDS011;56980;51.826;4.424;2022-09-25T17:46:53;1.93;;;0.90;;
69712;SDS011;56980;51.826;4.424;2022-09-25T17:49:19;1.88;;;0.80;;
69712;SDS011;56980;51.826;4.424;2022-09-25T17:51:45;1.80;;;1.00;;
69712;SDS011;56980;51.826;4.424;2022-09-25T17:54:11;3.60;;;0.90;;
69712;SDS011;56980;51.826;4.424;2022-09-25T17:56:37;2.63;;;0.70;;
69712;SDS011;56980;51.826;4.424;2022-09-25T17:59:03;1.52;;;0.50;;
69712;SDS011;56980;51.826;4.424;2022-09-25T18:01:31;5.22;;;0.65;;
69712;SDS011;56980;51.826;4.424;2022-09-25T18:03:58;1.13;;;0.50;;
69712;SDS011;56980;51.826;4.424;2022-09-25T18:06:27;3.70;;;0.70;;
69712;SDS011;56980;51.826;4.424;2022-09-25T18:08:53;5.63;;;1.20;;
69712;SDS011;56980;51.826;4.424;2022-09-25T18:11:20;3.20;;;0.70;;
69712;SDS011;56980;51.826;4.424;2022-09-25T18:13:46;5.40;;;0.80;;
69712;SDS011;56980;51.826;4.424;2022-09-25T18:16:16;0.77;;;0.60;;
69712;SDS011;56980;51.826;4.424;2022-09-25T18:18:44;3.88;;;1.30;;
69712;SDS011;56980;51.826;4.424;2022-09-25T18:21:29;4.38;;;0.80;;
69712;SDS011;56980;51.826;4.424;2022-09-25T18:24:13;3.97;;;0.80;;
69712;SDS011;56980;51.826;4.424;2022-09-25T18:26:42;1.75;;;0.70;;
69712;SDS011;56980;51.826;4.424;2022-09-25T18:29:11;3.85;;;0.82;;
69712;SDS011;56980;51.826;4.424;2022-09-25T18:31:42;2.00;;;1.03;;
69712;SDS011;56980;51.826;4.424;2022-09-25T18:34:08;6.90;;;1.35;;
69712;SDS011;56980;51.826;4.424;2022-09-25T18:36:33;2.75;;;0.90;;
69712;SDS011;56980;51.826;4.424;2022-09-25T18:38:59;2.00;;;0.97;;
69712;SDS011;56980;51.826;4.424;2022-09-25T18:41:24;1.40;;;1.07;;
69712;SDS011;56980;51.826;4.424;2022-09-25T18:43:51;1.55;;;0.80;;
69712;SDS011;56980;51.826;4.424;2022-09-25T18:46:17;4.30;;;1.30;;
69712;SDS011;56980;51.826;4.424;2022-09-25T18:48:46;3.37;;;0.80;;
69712;SDS011;56980;51.826;4.424;2022-09-25T18:51:12;1.83;;;0.80;;
69712;SDS011;56980;51.826;4.424;2022-09-25T18:53:38;2.13;;;1.15;;
69712;SDS011;56980;51.826;4.424;2022-09-25T18:56:04;1.73;;;0.93;;
69712;SDS011;56980;51.826;4.424;2022-09-25T18:58:29;2.83;;;1.53;;
69712;SDS011;56980;51.826;4.424;2022-09-25T19:00:54;3.97;;;1.83;;
69712;SDS011;56980;51.826;4.424;2022-09-25T19:03:20;5.90;;;1.88;;
69712;SDS011;56980;51.826;4.424;2022-09-25T19:05:54;7.75;;;2.10;;
69712;SDS011;56980;51.826;4.424;2022-09-25T19:08:21;3.90;;;2.47;;
69712;SDS011;56980;51.826;4.424;2022-09-25T19:10:46;5.78;;;2.75;;
69712;SDS011;56980;51.826;4.424;2022-09-25T19:13:12;4.68;;;3.05;;
69712;SDS011;56980;51.826;4.424;2022-09-25T19:15:40;8.43;;;4.87;;
69712;SDS011;56980;51.826;4.424;2022-09-25T19:18:07;7.43;;;4.03;;
69712;SDS011;56980;51.826;4.424;2022-09-25T19:20:32;7.40;;;3.70;;
69712;SDS011;56980;51.826;4.424;2022-09-25T19:23:00;7.63;;;3.63;;
69712;SDS011;56980;51.826;4.424;2022-09-25T19:25:27;6.17;;;3.30;;
69712;SDS011;56980;51.826;4.424;2022-09-25T19:27:53;7.47;;;4.10;;
69712;SDS011;56980;51.826;4.424;2022-09-25T19:30:18;5.57;;;3.22;;
69712;SDS011;56980;51.826;4.424;2022-09-25T19:32:44;5.60;;;2.50;;
69712;SDS011;56980;51.826;4.424;2022-09-25T19:35:09;3.87;;;2.30;;
69712;SDS011;56980;51.826;4.424;2022-09-25T19:37:35;4.38;;;2.05;;
69712;SDS011;56980;51.826;4.424;2022-09-25T19:40:01;4.00;;;1.83;;
69712;SDS011;56980;51.826;4.424;2022-09-25T19:42:45;3.38;;;2.00;;
69712;SDS011;56980;51.826;4.424;2022-09-25T19:45:11;2.05;;;1.45;;
69712;SDS011;56980;51.826;4.424;2022-09-25T19:47:38;5.15;;;1.83;;
69712;SDS011;56980;51.826;4.424;2022-09-25T19:50:11;4.27;;;1.50;;
69712;SDS011;56980;51.826;4.424;2022-09-25T19:52:36;2.50;;;1.10;;
69712;SDS011;56980;51.826;4.424;2022-09-25T19:55:10;4.65;;;1.27;;
69712;SDS011;56980;51.826;4.424;2022-09-25T19:57:39;2.15;;;1.05;;
69712;SDS011;56980;51.826;4.424;2022-09-25T20:00:12;6.83;;;1.60;;
69712;SDS011;56980;51.826;4.424;2022-09-25T20:02:45;2.83;;;1.20;;
69712;SDS011;56980;51.826;4.424;2022-09-25T20:05:11;3.38;;;1.33;;
69712;SDS011;56980;51.826;4.424;2022-09-25T20:07:37;2.03;;;1.00;;
69712;SDS011;56980;51.826;4.424;2022-09-25T20:10:02;3.97;;;1.30;;
69712;SDS011;56980;51.826;4.424;2022-09-25T20:12:28;4.30;;;1.30;;
69712;SDS011;56980;51.826;4.424;2022-09-25T20:14:54;3.45;;;1.42;;
69712;SDS011;56980;51.826;4.424;2022-09-25T20:17:19;3.03;;;1.47;;
69712;SDS011;56980;51.826;4.424;2022-09-25T20:19:45;2.53;;;1.20;;
69712;SDS011;56980;51.826;4.424;2022-09-25T20:22:10;2.67;;;1.10;;
69712;SDS011;56980;51.826;4.424;2022-09-25T20:24:36;4.97;;;1.80;;
69712;SDS011;56980;51.826;4.424;2022-09-25T20:27:01;4.15;;;1.63;;
69712;SDS011;56980;51.826;4.424;2022-09-25T20:29:27;4.77;;;1.80;;